createdAt,value
2023-03-06T00:01:00.697Z,68.31
2023-03-06T00:03:28.671Z,68.31
2023-03-06T00:06:00.513Z,68.35
2023-03-06T00:08:29.331Z,68.29
2023-03-06T00:10:57.976Z,68.48
2023-03-06T00:13:27.128Z,68.31
2023-03-06T00:15:54.824Z,68.27
2023-03-06T00:18:22.719Z,68.24
2023-03-06T00:20:50.833Z,68.10
2023-03-06T00:23:18.510Z,68.28
2023-03-06T00:25:47.109Z,67.93
2023-03-06T00:28:16.161Z,68.02
2023-03-06T00:30:46.091Z,68.05
2023-03-06T00:33:13.798Z,68.17
2023-03-06T00:35:41.654Z,68.04
2023-03-06T00:38:12.003Z,68.16
2023-03-06T00:40:40.239Z,68.14
2023-03-06T00:43:08.122Z,67.88
2023-03-06T00:45:36.233Z,67.92
2023-03-06T00:48:05.616Z,67.97
2023-03-06T00:50:34.173Z,67.86
2023-03-06T00:53:02.088Z,67.88
2023-03-06T00:55:31.340Z,68.27
2023-03-06T00:57:59.663Z,67.98
2023-03-06T01:00:29.153Z,67.89
2023-03-06T01:02:56.971Z,68.11
2023-03-06T01:05:24.982Z,68.07
2023-03-06T01:07:52.665Z,67.91
2023-03-06T01:10:20.503Z,68.10
2023-03-06T01:12:48.761Z,67.81
2023-03-06T01:15:16.790Z,67.91
2023-03-06T01:17:44.801Z,68.25
2023-03-06T01:20:16.452Z,67.96
2023-03-06T01:22:44.247Z,67.88
2023-03-06T01:25:12.480Z,67.93
2023-03-06T01:27:40.115Z,67.83
2023-03-06T01:30:12.238Z,68.00
2023-03-06T01:32:40.349Z,68.09
2023-03-06T01:35:08.571Z,67.90
2023-03-06T01:37:37.569Z,67.84
2023-03-06T01:40:07.114Z,67.81
2023-03-06T01:42:34.895Z,68.04
2023-03-06T01:45:28.306Z,67.61
2023-03-06T01:47:56.176Z,67.87
2023-03-06T01:50:24.127Z,67.74
2023-03-06T01:52:55.948Z,67.88
2023-03-06T01:55:31.087Z,67.76
2023-03-06T01:58:03.945Z,67.76
2023-03-06T02:00:31.998Z,67.67
2023-03-06T02:03:10.763Z,67.64
2023-03-06T02:05:40.984Z,67.78
2023-03-06T02:08:16.481Z,68.01
2023-03-06T02:11:18.396Z,67.83
2023-03-06T02:14:08.412Z,67.84
2023-03-06T02:16:36.109Z,67.89
2023-03-06T02:19:07.690Z,67.88
2023-03-06T02:21:37.707Z,67.92
2023-03-06T02:24:29.933Z,67.89
2023-03-06T02:26:59.284Z,67.87
2023-03-06T02:29:30.204Z,68.24
2023-03-06T02:32:01.486Z,68.15
2023-03-06T02:34:29.568Z,68.09
2023-03-06T02:37:03.398Z,68.05
2023-03-06T02:39:34.301Z,67.91
2023-03-06T02:42:01.917Z,68.17
2023-03-06T02:44:34.970Z,68.08
2023-03-06T02:47:02.687Z,67.90
2023-03-06T02:49:30.540Z,68.15
2023-03-06T02:51:58.989Z,68.09
2023-03-06T02:54:26.754Z,68.08
2023-03-06T02:56:54.496Z,68.04
2023-03-06T02:59:22.794Z,67.88
2023-03-06T03:01:51.218Z,68.04
2023-03-06T03:04:18.767Z,67.90
2023-03-06T03:06:46.496Z,68.01
2023-03-06T03:09:14.325Z,67.93
2023-03-06T03:11:42.301Z,68.03
2023-03-06T03:14:10.403Z,68.20
2023-03-06T03:16:39.207Z,68.08
2023-03-06T03:19:06.904Z,68.23
2023-03-06T03:21:34.990Z,68.09
2023-03-06T03:24:02.639Z,67.91
2023-03-06T03:26:30.441Z,68.02
2023-03-06T03:29:05.220Z,67.98
2023-03-06T03:31:33.229Z,68.01
2023-03-06T03:34:03.911Z,68.01
2023-03-06T03:36:35.385Z,67.99
2023-03-06T03:39:04.210Z,68.10
2023-03-06T03:41:33.342Z,67.98
2023-03-06T03:44:04.232Z,68.07
2023-03-06T03:46:32.894Z,68.04
2023-03-06T03:49:02.580Z,68.00
2023-03-06T03:51:30.555Z,68.15
2023-03-06T03:53:59.315Z,68.24
2023-03-06T03:56:30.414Z,68.27
2023-03-06T03:59:03.575Z,68.29
2023-03-06T04:01:39.706Z,68.28
2023-03-06T04:04:08.124Z,68.15
2023-03-06T04:06:36.196Z,68.20
2023-03-06T04:09:04.913Z,68.35
2023-03-06T04:11:33.553Z,68.21
2023-03-06T04:14:02.037Z,68.37
2023-03-06T04:16:29.709Z,68.40
2023-03-06T04:18:57.522Z,68.38
2023-03-06T04:21:25.265Z,68.41
2023-03-06T04:23:54.800Z,68.46
2023-03-06T04:26:22.407Z,68.40
2023-03-06T04:28:49.960Z,68.37
2023-03-06T04:31:17.802Z,68.24
2023-03-06T04:33:45.291Z,68.16
2023-03-06T04:36:34.862Z,68.47
2023-03-06T04:39:07.195Z,68.15
2023-03-06T04:41:35.723Z,68.14
2023-03-06T04:44:03.614Z,68.25
2023-03-06T04:46:49.733Z,68.26
2023-03-06T04:49:18.368Z,68.17
2023-03-06T04:51:46.126Z,68.21
2023-03-06T04:54:13.778Z,68.01
2023-03-06T04:56:41.576Z,67.97
2023-03-06T04:59:09.015Z,68.11
2023-03-06T05:01:36.818Z,67.96
2023-03-06T05:04:04.895Z,68.21
2023-03-06T05:06:32.822Z,68.24
2023-03-06T05:09:00.198Z,68.18
2023-03-06T05:11:28.028Z,68.00
2023-03-06T05:13:55.841Z,68.45
2023-03-06T05:16:23.503Z,68.23
2023-03-06T05:18:51.012Z,68.35
2023-03-06T05:21:18.396Z,68.51
2023-03-06T05:23:46.097Z,68.08
2023-03-06T05:26:15.111Z,68.03
2023-03-06T05:28:42.862Z,68.08
2023-03-06T05:31:10.860Z,68.11
2023-03-06T05:33:38.598Z,68.03
2023-03-06T05:36:09.230Z,68.13
2023-03-06T05:38:37.033Z,68.50
2023-03-06T05:41:05.070Z,68.44
2023-03-06T05:43:32.549Z,68.51
2023-03-06T05:46:02.755Z,68.41
2023-03-06T05:48:30.517Z,68.02
2023-03-06T05:50:59.106Z,67.95
2023-03-06T05:53:27.146Z,68.00
2023-03-06T05:56:03.209Z,68.08
2023-03-06T05:58:32.662Z,68.18
2023-03-06T06:01:00.844Z,67.92
2023-03-06T06:03:28.373Z,68.03
2023-03-06T06:05:56.458Z,67.94
2023-03-06T06:08:24.069Z,67.73
2023-03-06T06:10:53.485Z,67.56
2023-03-06T06:13:21.144Z,67.56
2023-03-06T06:15:48.754Z,67.91
2023-03-06T06:18:16.429Z,67.53
2023-03-06T06:20:43.810Z,67.67
2023-03-06T06:23:11.680Z,67.55
2023-03-06T06:25:39.338Z,67.33
2023-03-06T06:28:07.060Z,67.18
2023-03-06T06:30:34.828Z,67.17
2023-03-06T06:33:02.772Z,67.06
2023-03-06T06:35:30.434Z,66.93
2023-03-06T06:37:58.148Z,67.16
2023-03-06T06:40:27.624Z,67.14
2023-03-06T06:42:55.313Z,67.25
2023-03-06T06:45:22.912Z,67.27
2023-03-06T06:47:50.699Z,67.16
2023-03-06T06:50:18.361Z,67.22
2023-03-06T06:52:45.953Z,66.80
2023-03-06T06:55:13.779Z,66.99
2023-03-06T06:57:42.349Z,66.91
2023-03-06T07:00:14.033Z,66.86
2023-03-06T07:02:41.921Z,66.71
2023-03-06T07:05:10.060Z,66.49
2023-03-06T07:07:45.085Z,66.40
2023-03-06T07:10:15.822Z,66.45
2023-03-06T07:12:45.039Z,66.32
2023-03-06T07:15:15.070Z,66.26
2023-03-06T07:17:42.799Z,66.00
2023-03-06T07:20:11.363Z,66.15
2023-03-06T07:22:50.230Z,65.67
2023-03-06T07:25:19.331Z,65.87
2023-03-06T07:27:52.675Z,65.77
2023-03-06T07:30:22.936Z,65.62
2023-03-06T07:32:54.127Z,65.27
2023-03-06T07:35:22.264Z,65.18
2023-03-06T07:37:49.946Z,65.45
2023-03-06T07:40:19.882Z,65.24
2023-03-06T07:42:47.823Z,65.33
2023-03-06T07:45:18.536Z,65.37
2023-03-06T07:47:46.707Z,65.61
2023-03-06T07:50:14.117Z,65.63
2023-03-06T07:53:22.065Z,65.44
2023-03-06T07:55:49.834Z,65.29
2023-03-06T07:58:17.624Z,65.18
2023-03-06T08:00:45.144Z,64.66
2023-03-06T08:03:13.522Z,64.64
2023-03-06T08:05:41.732Z,64.52
2023-03-06T08:08:09.459Z,64.67
2023-03-06T08:10:37.336Z,64.62
2023-03-06T08:13:06.095Z,64.50
2023-03-06T08:15:34.151Z,63.87
2023-03-06T08:18:04.389Z,63.90
2023-03-06T08:20:34.223Z,63.42
2023-03-06T08:23:04.650Z,63.46
2023-03-06T08:25:32.400Z,63.42
2023-03-06T08:28:00.739Z,63.12
2023-03-06T08:30:30.149Z,62.61
2023-03-06T08:32:57.757Z,62.41
2023-03-06T08:35:25.266Z,62.71
2023-03-06T08:37:52.911Z,62.56
2023-03-06T08:40:23.269Z,62.57
2023-03-06T08:42:51.030Z,62.20
2023-03-06T08:45:18.660Z,62.26
2023-03-06T08:47:46.990Z,61.98
2023-03-06T08:50:14.701Z,62.19
2023-03-06T08:52:42.070Z,62.19
2023-03-06T08:55:10.180Z,61.80
2023-03-06T08:57:37.759Z,61.34
2023-03-06T09:00:09.175Z,61.45
2023-03-06T09:02:36.841Z,61.23
2023-03-06T09:05:07.822Z,61.19
2023-03-06T09:07:36.281Z,61.08
2023-03-06T09:10:08.015Z,61.53
2023-03-06T09:12:49.840Z,60.47
2023-03-06T09:15:20.954Z,60.63
2023-03-06T09:17:48.771Z,60.37
2023-03-06T09:20:17.652Z,60.45
2023-03-06T09:22:48.259Z,59.93
2023-03-06T09:25:25.446Z,59.71
2023-03-06T09:28:10.434Z,59.38
2023-03-06T09:30:41.370Z,60.11
2023-03-06T09:33:36.898Z,60.09
2023-03-06T09:36:07.232Z,60.23
2023-03-06T09:38:39.440Z,60.12
2023-03-06T09:41:26.698Z,60.13
2023-03-06T09:44:33.419Z,59.21
2023-03-06T09:47:44.766Z,58.52
2023-03-06T09:50:29.624Z,58.44
2023-03-06T09:53:34.331Z,58.62
2023-03-06T09:59:24.870Z,58.83
2023-03-06T10:02:10.247Z,58.57
2023-03-06T10:04:46.616Z,58.44
2023-03-06T10:07:45.043Z,58.24
2023-03-06T10:10:42.127Z,58.26
2023-03-06T10:13:38.503Z,57.39
2023-03-06T10:16:32.922Z,57.22
2023-03-06T10:19:11.903Z,57.51
2023-03-06T10:21:47.676Z,57.46
2023-03-06T10:24:25.279Z,57.03
2023-03-06T10:27:04.118Z,56.46
2023-03-06T10:30:01.266Z,56.25
2023-03-06T10:32:59.227Z,55.89
2023-03-06T10:35:53.536Z,55.57
2023-03-06T10:38:42.822Z,56.00
2023-03-06T10:41:33.193Z,55.13
2023-03-06T10:44:09.474Z,55.65
2023-03-06T10:47:01.285Z,54.91
2023-03-06T10:49:39.170Z,54.41
2023-03-06T10:52:26.056Z,54.04
2023-03-06T10:55:23.809Z,53.83
2023-03-06T10:57:57.000Z,53.31
2023-03-06T11:00:36.121Z,53.71
2023-03-06T11:03:17.671Z,53.55
2023-03-06T11:06:06.651Z,53.22
2023-03-06T11:08:35.804Z,53.05
2023-03-06T11:11:18.572Z,52.66
2023-03-06T11:13:58.976Z,52.21
2023-03-06T11:16:30.649Z,51.89
2023-03-06T11:19:01.543Z,51.83
2023-03-06T11:21:35.276Z,51.95
2023-03-06T11:24:20.049Z,52.14
2023-03-06T11:26:54.804Z,51.37
2023-03-06T11:29:38.921Z,50.43
2023-03-06T11:32:21.688Z,50.41
2023-03-06T11:34:52.625Z,49.67
2023-03-06T11:37:32.364Z,50.37
2023-03-06T11:40:15.383Z,50.38
2023-03-06T11:42:49.893Z,50.91
2023-03-06T11:45:37.613Z,51.25
2023-03-06T11:48:14.401Z,51.82
2023-03-06T11:50:54.120Z,51.96
2023-03-06T11:53:26.753Z,51.52
2023-03-06T11:56:09.773Z,51.08
2023-03-06T11:59:19.070Z,51.07
2023-03-06T12:02:06.563Z,50.54
2023-03-06T12:04:40.338Z,50.75
2023-03-06T12:07:10.970Z,51.05
2023-03-06T12:09:55.161Z,51.10
2023-03-06T12:12:41.633Z,51.56
2023-03-06T12:15:23.579Z,51.90
2023-03-06T12:17:59.484Z,52.04
2023-03-06T12:20:55.587Z,51.40
2023-03-06T12:23:23.890Z,51.21
2023-03-06T12:26:02.055Z,51.21
2023-03-06T12:28:50.568Z,51.66
2023-03-06T12:32:01.299Z,51.67
2023-03-06T12:34:46.274Z,51.96
2023-03-06T12:37:29.743Z,52.91
2023-03-06T12:40:06.887Z,53.97
2023-03-06T12:42:51.438Z,54.78
2023-03-06T12:45:37.519Z,54.84
2023-03-06T12:48:11.316Z,55.15
2023-03-06T12:50:40.298Z,54.43
2023-03-06T12:53:27.559Z,52.85
2023-03-06T12:55:57.702Z,52.86
2023-03-06T12:58:51.150Z,53.15
2023-03-06T13:01:41.489Z,54.03
2023-03-06T13:04:30.997Z,54.72
2023-03-06T13:07:15.303Z,55.07
2023-03-06T13:10:14.524Z,55.41
2023-03-06T13:13:05.432Z,55.64
2023-03-06T13:15:41.177Z,55.93
2023-03-06T13:18:24.570Z,55.87
2023-03-06T13:20:57.019Z,56.03
2023-03-06T13:23:35.250Z,56.31
2023-03-06T13:26:08.721Z,56.82
2023-03-06T13:28:58.391Z,56.76
2023-03-06T13:31:32.407Z,57.05
